sensor_id;sensor_type;location;lat;lon;timestamp;noise_LAeq;noise_LA_min;noise_LA_max;noise_LA01;noise_LA95
77134;Laerm;25175;50.140;18.990;2023-04-24T00:00:09;39.25;35.42;45.36;;
77134;Laerm;25175;50.140;18.990;2023-04-24T00:03:17;39.40;35.42;51.30;;
77134;Laerm;25175;50.140;18.990;2023-04-24T00:06:23;38.52;35.19;42.76;;
77134;Laerm;25175;50.140;18.990;2023-04-24T00:09:35;38.33;35.10;47.00;;
77134;Laerm;25175;50.140;18.990;2023-04-24T00:12:44;39.38;35.70;43.72;;
77134;Laerm;25175;50.140;18.990;2023-04-24T00:15:50;41.02;36.52;50.32;;
77134;Laerm;25175;50.140;18.990;2023-04-24T00:18:56;39.79;36.14;44.54;;
77134;Laerm;25175;50.140;18.990;2023-04-24T00:22:23;40.37;36.53;48.42;;
77134;Laerm;25175;50.140;18.990;2023-04-24T00:26:28;38.55;34.71;47.68;;
77134;Laerm;25175;50.140;18.990;2023-04-24T00:29:39;38.60;35.32;43.71;;
77134;Laerm;25175;50.140;18.990;2023-04-24T00:32:45;38.37;35.57;41.80;;
77134;Laerm;25175;50.140;18.990;2023-04-24T00:35:52;37.64;35.11;44.73;;
77134;Laerm;25175;50.140;18.990;2023-04-24T00:39:00;37.34;34.41;43.48;;
77134;Laerm;25175;50.140;18.990;2023-04-24T00:42:06;37.79;35.05;43.79;;
77134;Laerm;25175;50.140;18.990;2023-04-24T00:45:14;38.91;35.09;45.87;;
77134;Laerm;25175;50.140;18.990;2023-04-24T00:48:31;39.12;34.54;47.68;;
77134;Laerm;25175;50.140;18.990;2023-04-24T00:51:49;36.93;34.02;43.74;;
77134;Laerm;25175;50.140;18.990;2023-04-24T00:55:00;38.45;34.13;46.06;;
77134;Laerm;25175;50.140;18.990;2023-04-24T00:58:08;37.54;33.81;44.76;;
77134;Laerm;25175;50.140;18.990;2023-04-24T01:01:18;37.87;34.56;47.81;;
77134;Laerm;25175;50.140;18.990;2023-04-24T01:04:29;37.78;34.21;43.94;;
77134;Laerm;25175;50.140;18.990;2023-04-24T01:08:08;37.79;34.41;45.05;;
77134;Laerm;25175;50.140;18.990;2023-04-24T01:11:15;39.48;34.77;47.08;;
77134;Laerm;25175;50.140;18.990;2023-04-24T01:14:31;41.06;36.53;47.74;;
77134;Laerm;25175;50.140;18.990;2023-04-24T01:17:39;40.80;36.61;45.05;;
77134;Laerm;25175;50.140;18.990;2023-04-24T01:20:46;39.51;35.90;43.86;;
77134;Laerm;25175;50.140;18.990;2023-04-24T01:23:56;40.07;35.78;48.98;;
77134;Laerm;25175;50.140;18.990;2023-04-24T01:27:03;39.97;36.32;45.37;;
77134;Laerm;25175;50.140;18.990;2023-04-24T01:30:11;39.91;35.71;48.34;;
77134;Laerm;25175;50.140;18.990;2023-04-24T01:33:18;41.82;35.70;52.81;;
77134;Laerm;25175;50.140;18.990;2023-04-24T01:36:49;37.50;34.88;43.45;;
77134;Laerm;25175;50.140;18.990;2023-04-24T01:40:06;41.20;35.43;56.74;;
77134;Laerm;25175;50.140;18.990;2023-04-24T01:43:12;40.31;35.71;47.56;;
77134;Laerm;25175;50.140;18.990;2023-04-24T01:50:57;40.90;36.48;46.95;;
77134;Laerm;25175;50.140;18.990;2023-04-24T01:54:03;40.95;36.42;49.53;;
77134;Laerm;25175;50.140;18.990;2023-04-24T01:57:16;38.60;35.23;44.64;;
77134;Laerm;25175;50.140;18.990;2023-04-24T02:00:23;40.38;35.24;52.30;;
77134;Laerm;25175;50.140;18.990;2023-04-24T02:03:29;39.36;35.82;47.32;;
77134;Laerm;25175;50.140;18.990;2023-04-24T02:06:35;39.69;35.93;45.71;;
77134;Laerm;25175;50.140;18.990;2023-04-24T02:09:41;40.52;37.11;47.44;;
77134;Laerm;25175;50.140;18.990;2023-04-24T02:12:58;39.84;35.54;45.95;;
77134;Laerm;25175;50.140;18.990;2023-04-24T02:16:04;41.54;35.55;56.41;;
77134;Laerm;25175;50.140;18.990;2023-04-24T02:19:11;38.84;35.33;49.81;;
77134;Laerm;25175;50.140;18.990;2023-04-24T02:22:18;42.37;36.81;54.54;;
77134;Laerm;25175;50.140;18.990;2023-04-24T02:25:25;41.53;35.91;54.02;;
77134;Laerm;25175;50.140;18.990;2023-04-24T02:28:49;38.22;35.13;45.32;;
77134;Laerm;25175;50.140;18.990;2023-04-24T02:31:57;38.74;35.67;49.41;;
77134;Laerm;25175;50.140;18.990;2023-04-24T02:35:02;40.00;36.38;50.59;;
77134;Laerm;25175;50.140;18.990;2023-04-24T02:38:13;41.05;36.91;48.76;;
77134;Laerm;25175;50.140;18.990;2023-04-24T02:41:19;41.32;36.59;54.02;;
77134;Laerm;25175;50.140;18.990;2023-04-24T02:44:27;41.84;36.98;54.11;;
77134;Laerm;25175;50.140;18.990;2023-04-24T02:47:32;42.54;37.58;57.55;;
77134;Laerm;25175;50.140;18.990;2023-04-24T02:50:38;44.80;36.92;66.57;;
77134;Laerm;25175;50.140;18.990;2023-04-24T02:53:46;45.18;37.13;65.00;;
77134;Laerm;25175;50.140;18.990;2023-04-24T02:57:02;40.97;37.62;49.73;;
77134;Laerm;25175;50.140;18.990;2023-04-24T03:00:15;42.37;37.87;47.79;;
77134;Laerm;25175;50.140;18.990;2023-04-24T03:03:29;41.47;37.96;49.13;;
77134;Laerm;25175;50.140;18.990;2023-04-24T03:06:41;41.21;37.73;45.95;;
77134;Laerm;25175;50.140;18.990;2023-04-24T03:09:50;42.98;38.10;51.57;;
77134;Laerm;25175;50.140;18.990;2023-04-24T03:13:12;43.62;39.18;54.35;;
77134;Laerm;25175;50.140;18.990;2023-04-24T03:16:24;42.92;39.46;49.79;;
77134;Laerm;25175;50.140;18.990;2023-04-24T03:19:30;44.02;38.01;54.58;;
77134;Laerm;25175;50.140;18.990;2023-04-24T03:22:42;41.76;38.21;48.98;;
77134;Laerm;25175;50.140;18.990;2023-04-24T03:25:48;45.29;39.23;60.72;;
77134;Laerm;25175;50.140;18.990;2023-04-24T03:28:56;43.88;38.94;54.19;;
77134;Laerm;25175;50.140;18.990;2023-04-24T03:32:04;42.92;39.33;47.66;;
77134;Laerm;25175;50.140;18.990;2023-04-24T03:35:11;44.77;39.11;60.10;;
77134;Laerm;25175;50.140;18.990;2023-04-24T03:38:17;43.06;38.33;53.16;;
77134;Laerm;25175;50.140;18.990;2023-04-24T03:41:39;44.06;39.22;52.03;;
77134;Laerm;25175;50.140;18.990;2023-04-24T03:44:56;45.81;38.45;60.98;;
77134;Laerm;25175;50.140;18.990;2023-04-24T03:48:09;46.55;38.92;61.88;;
77134;Laerm;25175;50.140;18.990;2023-04-24T03:51:15;45.98;39.89;56.73;;
77134;Laerm;25175;50.140;18.990;2023-04-24T03:58:45;43.01;37.67;55.63;;
77134;Laerm;25175;50.140;18.990;2023-04-24T04:01:52;45.40;38.46;60.10;;
77134;Laerm;25175;50.140;18.990;2023-04-24T04:05:00;43.60;37.60;52.67;;
77134;Laerm;25175;50.140;18.990;2023-04-24T04:08:06;42.85;37.98;51.88;;
77134;Laerm;25175;50.140;18.990;2023-04-24T04:11:11;43.56;38.21;54.73;;
77134;Laerm;25175;50.140;18.990;2023-04-24T04:14:17;47.59;39.06;60.10;;
77134;Laerm;25175;50.140;18.990;2023-04-24T04:17:23;45.20;39.59;57.73;;
77134;Laerm;25175;50.140;18.990;2023-04-24T04:20:33;44.85;38.78;56.07;;
77134;Laerm;25175;50.140;18.990;2023-04-24T04:23:38;50.06;39.22;71.81;;
77134;Laerm;25175;50.140;18.990;2023-04-24T04:26:50;44.97;37.76;62.20;;
77134;Laerm;25175;50.140;18.990;2023-04-24T04:30:10;46.14;39.35;56.23;;
77134;Laerm;25175;50.140;18.990;2023-04-24T04:33:28;48.88;39.08;64.19;;
77134;Laerm;25175;50.140;18.990;2023-04-24T04:36:37;45.63;39.37;59.61;;
77134;Laerm;25175;50.140;18.990;2023-04-24T04:40:00;46.40;39.09;58.99;;
77134;Laerm;25175;50.140;18.990;2023-04-24T04:43:13;45.96;39.25;59.21;;
77134;Laerm;25175;50.140;18.990;2023-04-24T04:46:50;50.29;39.21;72.61;;
77134;Laerm;25175;50.140;18.990;2023-04-24T04:50:04;50.58;39.27;66.52;;
77134;Laerm;25175;50.140;18.990;2023-04-24T04:53:13;46.35;38.07;57.47;;
77134;Laerm;25175;50.140;18.990;2023-04-24T04:56:20;45.28;38.23;57.88;;
77134;Laerm;25175;50.140;18.990;2023-04-24T05:03:27;46.71;39.16;59.17;;
77134;Laerm;25175;50.140;18.990;2023-04-24T05:06:44;44.94;38.50;56.16;;
77134;Laerm;25175;50.140;18.990;2023-04-24T05:09:55;46.17;38.54;60.02;;
77134;Laerm;25175;50.140;18.990;2023-04-24T05:13:02;46.77;38.69;58.75;;
77134;Laerm;25175;50.140;18.990;2023-04-24T05:16:09;48.49;38.35;62.18;;
77134;Laerm;25175;50.140;18.990;2023-04-24T05:19:15;46.37;38.22;59.72;;
77134;Laerm;25175;50.140;18.990;2023-04-24T05:22:24;45.55;37.62;61.09;;
77134;Laerm;25175;50.140;18.990;2023-04-24T05:25:32;46.49;37.16;58.36;;
77134;Laerm;25175;50.140;18.990;2023-04-24T05:28:46;45.46;37.48;57.12;;
77134;Laerm;25175;50.140;18.990;2023-04-24T05:31:53;46.77;38.35;58.65;;
77134;Laerm;25175;50.140;18.990;2023-04-24T05:34:58;47.37;39.50;57.13;;
77134;Laerm;25175;50.140;18.990;2023-04-24T05:38:17;47.59;38.97;67.77;;
77134;Laerm;25175;50.140;18.990;2023-04-24T05:41:27;47.98;39.03;57.45;;
77134;Laerm;25175;50.140;18.990;2023-04-24T05:44:51;47.84;39.98;58.11;;
77134;Laerm;25175;50.140;18.990;2023-04-24T05:47:56;53.62;38.72;78.23;;
77134;Laerm;25175;50.140;18.990;2023-04-24T05:51:03;48.47;39.45;57.87;;
77134;Laerm;25175;50.140;18.990;2023-04-24T05:54:09;48.20;38.99;61.17;;
77134;Laerm;25175;50.140;18.990;2023-04-24T05:57:20;46.52;38.75;56.38;;
77134;Laerm;25175;50.140;18.990;2023-04-24T06:00:32;48.36;38.75;63.53;;
77134;Laerm;25175;50.140;18.990;2023-04-24T06:03:43;47.08;38.86;56.42;;
77134;Laerm;25175;50.140;18.990;2023-04-24T06:06:49;45.33;38.65;56.38;;
77134;Laerm;25175;50.140;18.990;2023-04-24T06:10:01;52.29;37.70;76.24;;
77134;Laerm;25175;50.140;18.990;2023-04-24T06:13:17;45.32;37.56;56.00;;
77134;Laerm;25175;50.140;18.990;2023-04-24T06:16:42;48.29;37.72;68.03;;
77134;Laerm;25175;50.140;18.990;2023-04-24T06:20:07;46.90;37.75;59.50;;
77134;Laerm;25175;50.140;18.990;2023-04-24T06:23:13;44.49;37.48;57.05;;
77134;Laerm;25175;50.140;18.990;2023-04-24T06:26:18;46.09;37.82;62.81;;
77134;Laerm;25175;50.140;18.990;2023-04-24T06:29:30;45.74;37.60;58.09;;
77134;Laerm;25175;50.140;18.990;2023-04-24T06:32:35;45.46;36.96;59.15;;
77134;Laerm;25175;50.140;18.990;2023-04-24T06:35:41;48.71;37.72;67.80;;
77134;Laerm;25175;50.140;18.990;2023-04-24T06:38:48;53.01;36.93;70.52;;
77134;Laerm;25175;50.140;18.990;2023-04-24T06:41:54;47.85;37.26;60.69;;
77134;Laerm;25175;50.140;18.990;2023-04-24T06:45:24;44.88;35.81;57.42;;
77134;Laerm;25175;50.140;18.990;2023-04-24T06:48:30;46.33;35.84;62.28;;
77134;Laerm;25175;50.140;18.990;2023-04-24T06:51:36;46.37;35.59;59.84;;
77134;Laerm;25175;50.140;18.990;2023-04-24T06:54:45;45.83;35.45;58.46;;
77134;Laerm;25175;50.140;18.990;2023-04-24T06:57:54;48.61;35.35;66.60;;
77134;Laerm;25175;50.140;18.990;2023-04-24T07:01:10;45.90;36.13;64.70;;
77134;Laerm;25175;50.140;18.990;2023-04-24T07:04:16;50.44;35.16;66.56;;
77134;Laerm;25175;50.140;18.990;2023-04-24T07:07:22;45.95;34.87;64.46;;
77134;Laerm;25175;50.140;18.990;2023-04-24T07:10:49;45.19;35.15;59.31;;
77134;Laerm;25175;50.140;18.990;2023-04-24T07:14:03;46.23;35.28;56.78;;
77134;Laerm;25175;50.140;18.990;2023-04-24T07:17:14;46.37;35.66;60.27;;
77134;Laerm;25175;50.140;18.990;2023-04-24T07:20:42;44.92;35.41;61.47;;
77134;Laerm;25175;50.140;18.990;2023-04-24T07:23:47;42.64;35.15;58.36;;
77134;Laerm;25175;50.140;18.990;2023-04-24T07:27:00;44.61;34.87;56.51;;
77134;Laerm;25175;50.140;18.990;2023-04-24T07:30:07;44.14;34.22;59.67;;
77134;Laerm;25175;50.140;18.990;2023-04-24T07:33:17;45.10;34.65;65.33;;
77134;Laerm;25175;50.140;18.990;2023-04-24T07:36:25;45.15;35.03;57.18;;
77134;Laerm;25175;50.140;18.990;2023-04-24T07:39:31;45.27;34.93;59.80;;
77134;Laerm;25175;50.140;18.990;2023-04-24T07:42:36;49.10;34.26;70.39;;
77134;Laerm;25175;50.140;18.990;2023-04-24T07:45:45;50.61;34.21;72.40;;
77134;Laerm;25175;50.140;18.990;2023-04-24T07:49:08;45.27;34.95;65.99;;
77134;Laerm;25175;50.140;18.990;2023-04-24T07:52:22;42.42;34.42;55.88;;
77134;Laerm;25175;50.140;18.990;2023-04-24T07:55:31;43.83;34.27;56.52;;
77134;Laerm;25175;50.140;18.990;2023-04-24T07:58:38;40.43;34.01;52.07;;
77134;Laerm;25175;50.140;18.990;2023-04-24T08:01:43;45.66;34.39;61.77;;
77134;Laerm;25175;50.140;18.990;2023-04-24T08:04:52;44.87;34.78;64.45;;
77134;Laerm;25175;50.140;18.990;2023-04-24T08:07:58;50.79;34.75;69.38;;
77134;Laerm;25175;50.140;18.990;2023-04-24T08:11:04;46.60;34.87;65.04;;
77134;Laerm;25175;50.140;18.990;2023-04-24T08:14:10;45.76;34.32;62.16;;
77134;Laerm;25175;50.140;18.990;2023-04-24T08:17:21;45.22;34.97;59.97;;
77134;Laerm;25175;50.140;18.990;2023-04-24T08:20:28;45.09;35.62;56.24;;
77134;Laerm;25175;50.140;18.990;2023-04-24T08:23:37;48.60;36.00;62.92;;
77134;Laerm;25175;50.140;18.990;2023-04-24T08:26:43;43.14;33.41;57.82;;
77134;Laerm;25175;50.140;18.990;2023-04-24T08:29:53;45.55;33.54;58.32;;
77134;Laerm;25175;50.140;18.990;2023-04-24T08:32:59;45.45;33.68;65.56;;
77134;Laerm;25175;50.140;18.990;2023-04-24T08:36:12;42.84;34.13;54.54;;
77134;Laerm;25175;50.140;18.990;2023-04-24T08:39:18;39.45;33.61;54.03;;
77134;Laerm;25175;50.140;18.990;2023-04-24T08:42:31;42.60;33.13;55.51;;
77134;Laerm;25175;50.140;18.990;2023-04-24T08:45:38;44.92;33.81;57.68;;
77134;Laerm;25175;50.140;18.990;2023-04-24T08:48:46;43.34;33.54;56.01;;
77134;Laerm;25175;50.140;18.990;2023-04-24T08:51:54;43.67;33.98;55.62;;
77134;Laerm;25175;50.140;18.990;2023-04-24T08:55:24;44.38;33.57;59.86;;
77134;Laerm;25175;50.140;18.990;2023-04-24T08:58:32;42.75;33.94;55.40;;
77134;Laerm;25175;50.140;18.990;2023-04-24T09:01:45;45.26;34.03;57.92;;
77134;Laerm;25175;50.140;18.990;2023-04-24T09:04:53;44.53;33.96;58.32;;
77134;Laerm;25175;50.140;18.990;2023-04-24T09:08:26;51.25;34.08;73.38;;
77134;Laerm;25175;50.140;18.990;2023-04-24T09:11:33;43.64;34.15;61.40;;
77134;Laerm;25175;50.140;18.990;2023-04-24T09:14:40;42.54;34.81;63.91;;
77134;Laerm;25175;50.140;18.990;2023-04-24T09:17:47;50.36;34.80;77.80;;
77134;Laerm;25175;50.140;18.990;2023-04-24T09:21:00;48.33;37.27;65.86;;
77134;Laerm;25175;50.140;18.990;2023-04-24T09:24:16;48.26;36.36;71.23;;
77134;Laerm;25175;50.140;18.990;2023-04-24T09:27:28;43.59;34.93;55.17;;
77134;Laerm;25175;50.140;18.990;2023-04-24T09:30:36;44.98;33.55;59.72;;
77134;Laerm;25175;50.140;18.990;2023-04-24T09:33:55;53.24;34.20;67.35;;
77134;Laerm;25175;50.140;18.990;2023-04-24T09:37:01;50.36;34.77;70.22;;
77134;Laerm;25175;50.140;18.990;2023-04-24T09:40:17;46.90;34.41;63.21;;
77134;Laerm;25175;50.140;18.990;2023-04-24T09:43:27;42.08;34.18;58.59;;
77134;Laerm;25175;50.140;18.990;2023-04-24T09:46:33;42.03;33.95;54.42;;
77134;Laerm;25175;50.140;18.990;2023-04-24T09:49:39;44.67;34.46;59.01;;
77134;Laerm;25175;50.140;18.990;2023-04-24T09:52:58;44.57;34.38;62.05;;
77134;Laerm;25175;50.140;18.990;2023-04-24T09:56:08;44.40;35.43;55.32;;
77134;Laerm;25175;50.140;18.990;2023-04-24T09:59:33;45.24;35.47;57.68;;
77134;Laerm;25175;50.140;18.990;2023-04-24T10:02:39;46.41;34.57;60.27;;
77134;Laerm;25175;50.140;18.990;2023-04-24T10:05:48;45.66;34.52;60.33;;
77134;Laerm;25175;50.140;18.990;2023-04-24T10:08:54;42.48;34.48;57.95;;
77134;Laerm;25175;50.140;18.990;2023-04-24T10:12:04;44.33;34.79;56.97;;
77134;Laerm;25175;50.140;18.990;2023-04-24T10:15:22;43.77;36.57;56.23;;
77134;Laerm;25175;50.140;18.990;2023-04-24T10:18:29;43.58;35.02;55.97;;
77134;Laerm;25175;50.140;18.990;2023-04-24T10:21:36;43.95;35.37;57.48;;
77134;Laerm;25175;50.140;18.990;2023-04-24T10:24:47;45.31;35.71;59.31;;
77134;Laerm;25175;50.140;18.990;2023-04-24T10:28:00;45.24;35.04;57.06;;
77134;Laerm;25175;50.140;18.990;2023-04-24T10:31:07;46.65;35.79;59.87;;
77134;Laerm;25175;50.140;18.990;2023-04-24T10:34:18;42.60;35.84;54.55;;
77134;Laerm;25175;50.140;18.990;2023-04-24T10:37:28;45.88;36.45;57.03;;
77134;Laerm;25175;50.140;18.990;2023-04-24T10:40:37;42.81;37.18;59.17;;
77134;Laerm;25175;50.140;18.990;2023-04-24T10:43:47;45.35;37.65;65.49;;
77134;Laerm;25175;50.140;18.990;2023-04-24T10:46:55;46.84;38.25;62.22;;
77134;Laerm;25175;50.140;18.990;2023-04-24T10:50:18;45.57;38.86;66.71;;
77134;Laerm;25175;50.140;18.990;2023-04-24T10:53:38;45.09;37.98;57.19;;
77134;Laerm;25175;50.140;18.990;2023-04-24T10:56:44;44.40;38.41;63.20;;
77134;Laerm;25175;50.140;18.990;2023-04-24T11:00:15;43.89;38.49;57.64;;
77134;Laerm;25175;50.140;18.990;2023-04-24T11:03:27;45.89;38.20;61.85;;
77134;Laerm;25175;50.140;18.990;2023-04-24T11:06:34;47.58;38.85;62.92;;
77134;Laerm;25175;50.140;18.990;2023-04-24T11:09:42;44.92;39.01;57.02;;
77134;Laerm;25175;50.140;18.990;2023-04-24T11:12:51;45.67;37.79;57.06;;
77134;Laerm;25175;50.140;18.990;2023-04-24T11:16:27;48.36;38.63;66.15;;
77134;Laerm;25175;50.140;18.990;2023-04-24T11:19:35;45.48;36.77;56.20;;
77134;Laerm;25175;50.140;18.990;2023-04-24T11:22:48;43.21;36.50;56.72;;
77134;Laerm;25175;50.140;18.990;2023-04-24T11:26:11;42.93;36.17;58.45;;
77134;Laerm;25175;50.140;18.990;2023-04-24T11:29:21;43.33;36.36;55.74;;
77134;Laerm;25175;50.140;18.990;2023-04-24T11:32:33;45.76;36.23;60.81;;
77134;Laerm;25175;50.140;18.990;2023-04-24T11:35:41;47.03;37.89;59.87;;
77134;Laerm;25175;50.140;18.990;2023-04-24T11:38:54;44.85;37.80;58.51;;
77134;Laerm;25175;50.140;18.990;2023-04-24T11:42:03;44.65;38.53;58.97;;
77134;Laerm;25175;50.140;18.990;2023-04-24T11:45:12;44.89;38.10;61.97;;
77134;Laerm;25175;50.140;18.990;2023-04-24T11:48:22;44.27;37.60;60.22;;
77134;Laerm;25175;50.140;18.990;2023-04-24T11:51:30;46.41;37.81;65.13;;
77134;Laerm;25175;50.140;18.990;2023-04-24T11:54:36;46.46;37.77;62.78;;
77134;Laerm;25175;50.140;18.990;2023-04-24T11:57:44;46.32;38.16;63.06;;
77134;Laerm;25175;50.140;18.990;2023-04-24T12:01:00;44.92;37.58;62.30;;
77134;Laerm;25175;50.140;18.990;2023-04-24T12:04:48;49.43;38.41;71.04;;
77134;Laerm;25175;50.140;18.990;2023-04-24T12:07:57;47.99;39.32;68.87;;
77134;Laerm;25175;50.140;18.990;2023-04-24T12:11:08;51.47;39.10;68.87;;
77134;Laerm;25175;50.140;18.990;2023-04-24T12:14:20;48.36;39.39;67.23;;
77134;Laerm;25175;50.140;18.990;2023-04-24T12:17:35;49.14;38.67;66.21;;
77134;Laerm;25175;50.140;18.990;2023-04-24T12:20:54;53.09;38.15;75.35;;
77134;Laerm;25175;50.140;18.990;2023-04-24T12:23:59;44.17;37.88;60.61;;
77134;Laerm;25175;50.140;18.990;2023-04-24T12:27:20;46.88;37.99;65.07;;
77134;Laerm;25175;50.140;18.990;2023-04-24T12:30:28;47.81;38.39;66.54;;
77134;Laerm;25175;50.140;18.990;2023-04-24T12:33:36;47.34;39.10;65.40;;
77134;Laerm;25175;50.140;18.990;2023-04-24T12:36:44;46.73;38.99;61.64;;
77134;Laerm;25175;50.140;18.990;2023-04-24T12:40:01;47.13;38.67;63.56;;
77134;Laerm;25175;50.140;18.990;2023-04-24T12:43:15;47.46;39.80;62.29;;
77134;Laerm;25175;50.140;18.990;2023-04-24T12:46:23;48.86;38.72;70.25;;
77134;Laerm;25175;50.140;18.990;2023-04-24T12:49:29;46.12;38.29;61.20;;
77134;Laerm;25175;50.140;18.990;2023-04-24T12:52:43;48.48;38.91;69.49;;
77134;Laerm;25175;50.140;18.990;2023-04-24T12:55:48;47.80;39.66;65.49;;
77134;Laerm;25175;50.140;18.990;2023-04-24T12:59:01;47.74;39.94;60.99;;
77134;Laerm;25175;50.140;18.990;2023-04-24T13:02:07;49.23;38.22;67.04;;
77134;Laerm;25175;50.140;18.990;2023-04-24T13:05:13;46.01;37.90;63.00;;
77134;Laerm;25175;50.140;18.990;2023-04-24T13:08:24;47.24;38.54;65.06;;
77134;Laerm;25175;50.140;18.990;2023-04-24T13:11:30;47.79;39.18;62.02;;
77134;Laerm;25175;50.140;18.990;2023-04-24T13:14:48;49.23;38.28;64.67;;
77134;Laerm;25175;50.140;18.990;2023-04-24T13:17:54;46.02;38.71;61.58;;
77134;Laerm;25175;50.140;18.990;2023-04-24T13:21:00;47.61;38.54;56.21;;
77134;Laerm;25175;50.140;18.990;2023-04-24T13:24:09;48.96;38.28;68.25;;
77134;Laerm;25175;50.140;18.990;2023-04-24T13:27:20;46.62;38.96;61.07;;
77134;Laerm;25175;50.140;18.990;2023-04-24T13:30:31;48.46;39.18;67.62;;
77134;Laerm;25175;50.140;18.990;2023-04-24T13:33:37;46.47;39.55;55.63;;
77134;Laerm;25175;50.140;18.990;2023-04-24T13:36:45;47.83;40.22;57.21;;
77134;Laerm;25175;50.140;18.990;2023-04-24T13:40:32;48.07;38.99;67.09;;
77134;Laerm;25175;50.140;18.990;2023-04-24T13:43:38;48.24;38.53;62.93;;
77134;Laerm;25175;50.140;18.990;2023-04-24T13:46:47;51.63;40.95;61.68;;
77134;Laerm;25175;50.140;18.990;2023-04-24T13:49:54;49.56;44.03;60.40;;
77134;Laerm;25175;50.140;18.990;2023-04-24T13:52:59;50.54;43.29;61.00;;
77134;Laerm;25175;50.140;18.990;2023-04-24T13:56:28;49.02;42.17;63.21;;
77134;Laerm;25175;50.140;18.990;2023-04-24T13:59:34;53.61;40.80;76.12;;
77134;Laerm;25175;50.140;18.990;2023-04-24T14:02:41;49.26;42.02;64.50;;
77134;Laerm;25175;50.140;18.990;2023-04-24T14:05:46;47.06;39.42;59.30;;
77134;Laerm;25175;50.140;18.990;2023-04-24T14:08:53;48.84;41.44;59.68;;
77134;Laerm;25175;50.140;18.990;2023-04-24T14:12:01;48.74;41.83;65.11;;
77134;Laerm;25175;50.140;18.990;2023-04-24T14:15:09;46.90;39.11;56.93;;
77134;Laerm;25175;50.140;18.990;2023-04-24T14:18:15;46.60;40.99;57.72;;
77134;Laerm;25175;50.140;18.990;2023-04-24T14:21:24;47.39;40.09;55.90;;
77134;Laerm;25175;50.140;18.990;2023-04-24T14:24:30;50.07;41.88;61.79;;
77134;Laerm;25175;50.140;18.990;2023-04-24T14:27:45;48.49;41.96;62.20;;
77134;Laerm;25175;50.140;18.990;2023-04-24T14:30:50;48.67;39.76;59.97;;
77134;Laerm;25175;50.140;18.990;2023-04-24T14:33:59;48.84;40.56;66.58;;
77134;Laerm;25175;50.140;18.990;2023-04-24T14:37:05;47.49;39.08;61.54;;
77134;Laerm;25175;50.140;18.990;2023-04-24T14:40:11;47.15;38.53;62.80;;
77134;Laerm;25175;50.140;18.990;2023-04-24T14:43:23;46.84;37.87;59.69;;
77134;Laerm;25175;50.140;18.990;2023-04-24T14:46:29;45.19;38.28;55.67;;
77134;Laerm;25175;50.140;18.990;2023-04-24T14:49:35;47.55;38.71;65.30;;
77134;Laerm;25175;50.140;18.990;2023-04-24T14:52:41;48.79;38.87;70.62;;
77134;Laerm;25175;50.140;18.990;2023-04-24T14:55:46;46.35;38.16;60.40;;
77134;Laerm;25175;50.140;18.990;2023-04-24T14:58:55;46.19;38.79;60.90;;
77134;Laerm;25175;50.140;18.990;2023-04-24T15:02:03;47.86;38.88;64.13;;
77134;Laerm;25175;50.140;18.990;2023-04-24T15:05:26;45.19;38.07;61.06;;
77134;Laerm;25175;50.140;18.990;2023-04-24T15:08:34;46.70;37.64;63.61;;
77134;Laerm;25175;50.140;18.990;2023-04-24T15:14:58;47.45;38.40;58.22;;
77134;Laerm;25175;50.140;18.990;2023-04-24T15:18:05;46.22;39.24;58.23;;
77134;Laerm;25175;50.140;18.990;2023-04-24T15:21:11;51.75;40.33;78.52;;
77134;Laerm;25175;50.140;18.990;2023-04-24T15:24:16;47.74;38.89;68.80;;
77134;Laerm;25175;50.140;18.990;2023-04-24T15:27:23;46.21;38.16;57.90;;
77134;Laerm;25175;50.140;18.990;2023-04-24T15:30:35;45.92;38.01;57.24;;
77134;Laerm;25175;50.140;18.990;2023-04-24T15:33:51;45.08;37.29;55.96;;
77134;Laerm;25175;50.140;18.990;2023-04-24T15:37:00;45.73;37.70;56.88;;
77134;Laerm;25175;50.140;18.990;2023-04-24T15:40:11;46.52;37.91;57.15;;
77134;Laerm;25175;50.140;18.990;2023-04-24T15:43:21;46.61;37.56;63.08;;
77134;Laerm;25175;50.140;18.990;2023-04-24T15:50:28;44.26;36.94;59.87;;
77134;Laerm;25175;50.140;18.990;2023-04-24T15:53:38;45.62;37.50;57.45;;
77134;Laerm;25175;50.140;18.990;2023-04-24T15:56:57;44.62;37.74;57.88;;
77134;Laerm;25175;50.140;18.990;2023-04-24T16:00:17;45.31;37.21;56.98;;
77134;Laerm;25175;50.140;18.990;2023-04-24T16:03:28;47.60;37.89;59.73;;
77134;Laerm;25175;50.140;18.990;2023-04-24T16:06:36;45.58;37.42;58.70;;
77134;Laerm;25175;50.140;18.990;2023-04-24T16:09:42;47.85;39.56;62.74;;
77134;Laerm;25175;50.140;18.990;2023-04-24T16:12:51;46.24;38.61;58.80;;
77134;Laerm;25175;50.140;18.990;2023-04-24T16:16:02;47.51;38.97;58.68;;
77134;Laerm;25175;50.140;18.990;2023-04-24T16:19:10;44.73;38.43;53.12;;
77134;Laerm;25175;50.140;18.990;2023-04-24T16:22:16;45.02;38.87;54.74;;
77134;Laerm;25175;50.140;18.990;2023-04-24T16:25:25;45.67;38.08;59.11;;
77134;Laerm;25175;50.140;18.990;2023-04-24T16:28:32;55.87;37.67;78.76;;
77134;Laerm;25175;50.140;18.990;2023-04-24T16:31:38;47.93;39.19;63.43;;
77134;Laerm;25175;50.140;18.990;2023-04-24T16:34:47;44.38;37.99;54.82;;
77134;Laerm;25175;50.140;18.990;2023-04-24T16:37:54;48.60;38.29;64.36;;
77134;Laerm;25175;50.140;18.990;2023-04-24T16:40:59;48.62;36.93;66.58;;
77134;Laerm;25175;50.140;18.990;2023-04-24T16:44:05;44.35;36.57;59.72;;
77134;Laerm;25175;50.140;18.990;2023-04-24T16:47:10;46.26;39.07;64.10;;
77134;Laerm;25175;50.140;18.990;2023-04-24T16:50:20;45.99;39.10;64.68;;
77134;Laerm;25175;50.140;18.990;2023-04-24T16:53:37;45.75;38.95;57.32;;
77134;Laerm;25175;50.140;18.990;2023-04-24T16:56:43;45.39;37.13;58.78;;
77134;Laerm;25175;50.140;18.990;2023-04-24T16:59:49;46.16;38.20;57.87;;
77134;Laerm;25175;50.140;18.990;2023-04-24T17:02:57;46.51;36.59;69.90;;
77134;Laerm;25175;50.140;18.990;2023-04-24T17:06:05;45.69;37.14;61.51;;
77134;Laerm;25175;50.140;18.990;2023-04-24T17:09:12;43.33;35.99;55.02;;
77134;Laerm;25175;50.140;18.990;2023-04-24T17:12:19;44.03;36.21;58.04;;
77134;Laerm;25175;50.140;18.990;2023-04-24T17:15:25;46.35;35.62;62.19;;
77134;Laerm;25175;50.140;18.990;2023-04-24T17:18:31;45.09;35.21;61.99;;
77134;Laerm;25175;50.140;18.990;2023-04-24T17:21:39;44.93;35.26;55.24;;
77134;Laerm;25175;50.140;18.990;2023-04-24T17:24:53;44.63;35.29;59.37;;
77134;Laerm;25175;50.140;18.990;2023-04-24T17:27:59;42.11;35.30;54.17;;
77134;Laerm;25175;50.140;18.990;2023-04-24T17:31:04;42.22;34.51;55.95;;
77134;Laerm;25175;50.140;18.990;2023-04-24T17:34:46;42.66;35.30;55.88;;
77134;Laerm;25175;50.140;18.990;2023-04-24T17:38:05;41.72;35.45;52.98;;
77134;Laerm;25175;50.140;18.990;2023-04-24T17:41:11;42.44;35.95;54.52;;
77134;Laerm;25175;50.140;18.990;2023-04-24T17:44:17;44.72;35.56;56.60;;
77134;Laerm;25175;50.140;18.990;2023-04-24T17:47:24;42.39;35.59;58.94;;
77134;Laerm;25175;50.140;18.990;2023-04-24T17:50:34;43.78;36.02;56.09;;